sensor_id;sensor_type;location;lat;lon;timestamp;P1;durP1;ratioP1;P2;durP2;ratioP2
6033;SDS011;3045;43.226;27.858;2022-08-01T00:02:18;9.02;;;8.23;;
6033;SDS011;3045;43.226;27.858;2022-08-01T00:04:45;10.18;;;8.98;;
6033;SDS011;3045;43.226;27.858;2022-08-01T00:07:12;11.88;;;9.32;;
6033;SDS011;3045;43.226;27.858;2022-08-01T00:09:39;12.43;;;9.23;;
6033;SDS011;3045;43.226;27.858;2022-08-01T00:12:06;12.23;;;9.18;;
6033;SDS011;3045;43.226;27.858;2022-08-01T00:14:34;11.52;;;9.55;;
6033;SDS011;3045;43.226;27.858;2022-08-01T00:17:01;11.40;;;10.40;;
6033;SDS011;3045;43.226;27.858;2022-08-01T00:19:28;10.68;;;9.63;;
6033;SDS011;3045;43.226;27.858;2022-08-01T00:21:55;19.27;;;9.80;;
6033;SDS011;3045;43.226;27.858;2022-08-01T00:24:24;9.82;;;9.00;;
6033;SDS011;3045;43.226;27.858;2022-08-01T00:26:50;13.20;;;9.18;;
6033;SDS011;3045;43.226;27.858;2022-08-01T00:29:17;12.13;;;10.07;;
6033;SDS011;3045;43.226;27.858;2022-08-01T00:31:45;12.65;;;10.93;;
6033;SDS011;3045;43.226;27.858;2022-08-01T00:34:12;11.15;;;10.13;;
6033;SDS011;3045;43.226;27.858;2022-08-01T00:36:39;15.10;;;10.38;;
6033;SDS011;3045;43.226;27.858;2022-08-01T00:39:06;11.35;;;10.10;;
6033;SDS011;3045;43.226;27.858;2022-08-01T00:41:33;10.65;;;9.85;;
6033;SDS011;3045;43.226;27.858;2022-08-01T00:44:02;13.57;;;10.00;;
6033;SDS011;3045;43.226;27.858;2022-08-01T00:46:30;12.00;;;10.35;;
6033;SDS011;3045;43.226;27.858;2022-08-01T00:48:58;9.82;;;9.07;;
6033;SDS011;3045;43.226;27.858;2022-08-01T00:51:26;15.32;;;9.27;;
6033;SDS011;3045;43.226;27.858;2022-08-01T00:53:53;11.40;;;10.00;;
6033;SDS011;3045;43.226;27.858;2022-08-01T00:56:21;10.52;;;9.35;;
6033;SDS011;3045;43.226;27.858;2022-08-01T00:58:51;15.15;;;9.73;;
6033;SDS011;3045;43.226;27.858;2022-08-01T01:01:18;10.95;;;9.05;;
6033;SDS011;3045;43.226;27.858;2022-08-01T01:03:46;14.20;;;9.37;;
6033;SDS011;3045;43.226;27.858;2022-08-01T01:06:18;16.27;;;11.98;;
6033;SDS011;3045;43.226;27.858;2022-08-01T01:09:12;14.15;;;11.38;;
6033;SDS011;3045;43.226;27.858;2022-08-01T01:11:49;12.70;;;11.77;;
6033;SDS011;3045;43.226;27.858;2022-08-01T01:14:29;12.45;;;11.10;;
6033;SDS011;3045;43.226;27.858;2022-08-01T01:17:00;15.23;;;12.60;;
6033;SDS011;3045;43.226;27.858;2022-08-01T01:19:31;21.48;;;15.77;;
6033;SDS011;3045;43.226;27.858;2022-08-01T01:25:09;20.33;;;17.53;;
6033;SDS011;3045;43.226;27.858;2022-08-01T01:27:47;23.15;;;17.08;;
6033;SDS011;3045;43.226;27.858;2022-08-01T01:30:26;19.70;;;17.25;;
6033;SDS011;3045;43.226;27.858;2022-08-01T01:32:58;18.25;;;16.13;;
6033;SDS011;3045;43.226;27.858;2022-08-01T01:35:28;19.77;;;15.13;;
6033;SDS011;3045;43.226;27.858;2022-08-01T01:38:00;17.42;;;15.85;;
6033;SDS011;3045;43.226;27.858;2022-08-01T01:40:31;15.95;;;14.65;;
6033;SDS011;3045;43.226;27.858;2022-08-01T01:43:00;19.10;;;15.38;;
6033;SDS011;3045;43.226;27.858;2022-08-01T01:45:28;14.83;;;13.33;;
6033;SDS011;3045;43.226;27.858;2022-08-01T01:47:56;13.90;;;12.23;;
6033;SDS011;3045;43.226;27.858;2022-08-01T01:50:25;13.27;;;12.15;;
6033;SDS011;3045;43.226;27.858;2022-08-01T01:52:53;13.53;;;12.43;;
6033;SDS011;3045;43.226;27.858;2022-08-01T01:55:22;12.93;;;11.83;;
6033;SDS011;3045;43.226;27.858;2022-08-01T01:57:52;14.68;;;11.25;;
6033;SDS011;3045;43.226;27.858;2022-08-01T02:00:22;10.95;;;10.35;;
6033;SDS011;3045;43.226;27.858;2022-08-01T02:02:52;10.00;;;9.45;;
6033;SDS011;3045;43.226;27.858;2022-08-01T02:05:22;9.80;;;8.98;;
6033;SDS011;3045;43.226;27.858;2022-08-01T02:07:51;9.07;;;8.23;;
6033;SDS011;3045;43.226;27.858;2022-08-01T02:10:20;10.33;;;9.37;;
6033;SDS011;3045;43.226;27.858;2022-08-01T02:12:48;8.55;;;8.02;;
6033;SDS011;3045;43.226;27.858;2022-08-01T02:15:16;9.23;;;8.43;;
6033;SDS011;3045;43.226;27.858;2022-08-01T02:17:45;8.30;;;7.68;;
6033;SDS011;3045;43.226;27.858;2022-08-01T02:20:16;7.10;;;6.70;;
6033;SDS011;3045;43.226;27.858;2022-08-01T02:22:44;7.25;;;6.95;;
6033;SDS011;3045;43.226;27.858;2022-08-01T02:25:15;6.20;;;5.90;;
6033;SDS011;3045;43.226;27.858;2022-08-01T02:27:48;7.03;;;5.97;;
6033;SDS011;3045;43.226;27.858;2022-08-01T02:30:20;6.47;;;5.97;;
6033;SDS011;3045;43.226;27.858;2022-08-01T02:32:51;6.15;;;5.68;;
6033;SDS011;3045;43.226;27.858;2022-08-01T02:35:27;6.72;;;6.43;;
6033;SDS011;3045;43.226;27.858;2022-08-01T02:37:57;5.67;;;5.17;;
6033;SDS011;3045;43.226;27.858;2022-08-01T02:40:26;6.90;;;5.70;;
6033;SDS011;3045;43.226;27.858;2022-08-01T02:42:56;5.90;;;5.33;;
6033;SDS011;3045;43.226;27.858;2022-08-01T02:45:25;5.60;;;5.33;;
6033;SDS011;3045;43.226;27.858;2022-08-01T02:47:53;5.73;;;5.33;;
6033;SDS011;3045;43.226;27.858;2022-08-01T02:50:25;4.93;;;4.60;;
6033;SDS011;3045;43.226;27.858;2022-08-01T02:52:56;4.80;;;4.50;;
6033;SDS011;3045;43.226;27.858;2022-08-01T02:55:24;5.20;;;4.60;;
6033;SDS011;3045;43.226;27.858;2022-08-01T02:57:52;4.50;;;4.20;;
6033;SDS011;3045;43.226;27.858;2022-08-01T03:00:21;4.70;;;4.40;;
6033;SDS011;3045;43.226;27.858;2022-08-01T03:02:51;3.92;;;3.70;;
6033;SDS011;3045;43.226;27.858;2022-08-01T03:05:21;3.83;;;3.50;;
6033;SDS011;3045;43.226;27.858;2022-08-01T03:07:50;4.80;;;4.47;;
6033;SDS011;3045;43.226;27.858;2022-08-01T03:10:19;4.80;;;4.50;;
6033;SDS011;3045;43.226;27.858;2022-08-01T03:12:46;4.53;;;4.10;;
6033;SDS011;3045;43.226;27.858;2022-08-01T03:15:16;4.90;;;4.50;;
6033;SDS011;3045;43.226;27.858;2022-08-01T03:17:45;4.23;;;3.97;;
6033;SDS011;3045;43.226;27.858;2022-08-01T03:20:15;4.27;;;3.97;;
6033;SDS011;3045;43.226;27.858;2022-08-01T03:22:44;4.67;;;4.27;;
6033;SDS011;3045;43.226;27.858;2022-08-01T03:25:15;4.53;;;4.33;;
6033;SDS011;3045;43.226;27.858;2022-08-01T03:27:43;4.47;;;3.43;;
6033;SDS011;3045;43.226;27.858;2022-08-01T03:30:15;7.90;;;3.80;;
6033;SDS011;3045;43.226;27.858;2022-08-01T03:32:42;3.40;;;3.30;;
6033;SDS011;3045;43.226;27.858;2022-08-01T03:35:09;3.53;;;3.23;;
6033;SDS011;3045;43.226;27.858;2022-08-01T03:37:36;2.80;;;2.70;;
6033;SDS011;3045;43.226;27.858;2022-08-01T03:40:09;4.77;;;3.47;;
6033;SDS011;3045;43.226;27.858;2022-08-01T03:42:44;3.63;;;2.90;;
6033;SDS011;3045;43.226;27.858;2022-08-01T03:45:15;4.35;;;2.90;;
6033;SDS011;3045;43.226;27.858;2022-08-01T03:47:47;4.00;;;2.58;;
6033;SDS011;3045;43.226;27.858;2022-08-01T03:50:19;3.45;;;2.55;;
6033;SDS011;3045;43.226;27.858;2022-08-01T03:52:48;2.88;;;2.67;;
6033;SDS011;3045;43.226;27.858;2022-08-01T03:55:17;3.95;;;2.80;;
6033;SDS011;3045;43.226;27.858;2022-08-01T03:57:48;2.60;;;2.50;;
6033;SDS011;3045;43.226;27.858;2022-08-01T04:00:16;2.58;;;2.38;;
6033;SDS011;3045;43.226;27.858;2022-08-01T04:02:45;3.92;;;2.60;;
6033;SDS011;3045;43.226;27.858;2022-08-01T04:05:12;2.20;;;2.10;;
6033;SDS011;3045;43.226;27.858;2022-08-01T04:07:40;3.65;;;2.40;;
6033;SDS011;3045;43.226;27.858;2022-08-01T04:10:11;2.92;;;2.10;;
6033;SDS011;3045;43.226;27.858;2022-08-01T04:12:39;2.13;;;1.95;;
6033;SDS011;3045;43.226;27.858;2022-08-01T04:15:07;2.45;;;2.35;;
6033;SDS011;3045;43.226;27.858;2022-08-01T04:17:34;3.65;;;1.73;;
6033;SDS011;3045;43.226;27.858;2022-08-01T04:20:02;2.60;;;2.42;;
6033;SDS011;3045;43.226;27.858;2022-08-01T04:22:29;3.55;;;2.00;;
6033;SDS011;3045;43.226;27.858;2022-08-01T04:24:57;4.57;;;1.80;;
6033;SDS011;3045;43.226;27.858;2022-08-01T04:27:26;2.85;;;2.45;;
6033;SDS011;3045;43.226;27.858;2022-08-01T04:29:56;5.88;;;2.40;;
6033;SDS011;3045;43.226;27.858;2022-08-01T04:32:26;3.53;;;3.05;;
6033;SDS011;3045;43.226;27.858;2022-08-01T04:34:56;3.97;;;1.52;;
6033;SDS011;3045;43.226;27.858;2022-08-01T04:37:26;1.85;;;1.75;;
6033;SDS011;3045;43.226;27.858;2022-08-01T04:39:55;2.75;;;1.83;;
6033;SDS011;3045;43.226;27.858;2022-08-01T04:42:24;1.77;;;1.63;;
6033;SDS011;3045;43.226;27.858;2022-08-01T04:44:52;3.67;;;2.00;;
6033;SDS011;3045;43.226;27.858;2022-08-01T04:47:19;3.55;;;1.45;;
6033;SDS011;3045;43.226;27.858;2022-08-01T04:49:48;3.67;;;1.63;;
6033;SDS011;3045;43.226;27.858;2022-08-01T04:52:15;2.00;;;1.70;;
6033;SDS011;3045;43.226;27.858;2022-08-01T04:54:43;3.05;;;2.08;;
6033;SDS011;3045;43.226;27.858;2022-08-01T04:57:11;9.52;;;2.30;;
6033;SDS011;3045;43.226;27.858;2022-08-01T04:59:40;1.70;;;1.60;;
6033;SDS011;3045;43.226;27.858;2022-08-01T05:02:09;1.60;;;1.60;;
6033;SDS011;3045;43.226;27.858;2022-08-01T05:04:38;3.97;;;1.92;;
6033;SDS011;3045;43.226;27.858;2022-08-01T05:07:08;6.07;;;1.95;;
6033;SDS011;3045;43.226;27.858;2022-08-01T05:09:35;1.92;;;1.83;;
6033;SDS011;3045;43.226;27.858;2022-08-01T05:12:03;2.70;;;1.73;;
6033;SDS011;3045;43.226;27.858;2022-08-01T05:14:32;1.77;;;1.67;;
6033;SDS011;3045;43.226;27.858;2022-08-01T05:16:59;3.72;;;1.70;;
6033;SDS011;3045;43.226;27.858;2022-08-01T05:19:28;5.03;;;1.75;;
6033;SDS011;3045;43.226;27.858;2022-08-01T05:21:57;3.72;;;2.10;;
6033;SDS011;3045;43.226;27.858;2022-08-01T05:24:25;2.28;;;2.15;;
6033;SDS011;3045;43.226;27.858;2022-08-01T05:26:53;4.40;;;2.05;;
6033;SDS011;3045;43.226;27.858;2022-08-01T05:29:20;6.10;;;2.10;;
6033;SDS011;3045;43.226;27.858;2022-08-01T05:31:47;4.35;;;2.30;;
6033;SDS011;3045;43.226;27.858;2022-08-01T05:34:16;8.65;;;2.42;;
6033;SDS011;3045;43.226;27.858;2022-08-01T05:36:42;5.40;;;2.38;;
6033;SDS011;3045;43.226;27.858;2022-08-01T05:39:10;3.80;;;1.98;;
6033;SDS011;3045;43.226;27.858;2022-08-01T05:41:39;3.63;;;1.80;;
6033;SDS011;3045;43.226;27.858;2022-08-01T05:44:06;2.88;;;1.80;;
6033;SDS011;3045;43.226;27.858;2022-08-01T05:46:33;3.22;;;1.88;;
6033;SDS011;3045;43.226;27.858;2022-08-01T05:49:00;2.78;;;2.00;;
6033;SDS011;3045;43.226;27.858;2022-08-01T05:51:29;1.85;;;1.75;;
6033;SDS011;3045;43.226;27.858;2022-08-01T05:53:56;1.85;;;1.75;;
6033;SDS011;3045;43.226;27.858;2022-08-01T05:56:24;6.22;;;2.53;;
6033;SDS011;3045;43.226;27.858;2022-08-01T05:58:52;1.88;;;1.77;;
6033;SDS011;3045;43.226;27.858;2022-08-01T06:01:19;2.70;;;2.03;;
6033;SDS011;3045;43.226;27.858;2022-08-01T06:03:46;4.50;;;2.22;;
6033;SDS011;3045;43.226;27.858;2022-08-01T06:06:13;2.50;;;1.98;;
6033;SDS011;3045;43.226;27.858;2022-08-01T06:08:40;4.90;;;2.20;;
6033;SDS011;3045;43.226;27.858;2022-08-01T06:11:07;3.53;;;2.50;;
6033;SDS011;3045;43.226;27.858;2022-08-01T06:13:34;1.90;;;1.80;;
6033;SDS011;3045;43.226;27.858;2022-08-01T06:16:02;9.30;;;1.92;;
6033;SDS011;3045;43.226;27.858;2022-08-01T06:18:29;2.42;;;2.03;;
6033;SDS011;3045;43.226;27.858;2022-08-01T06:20:56;8.48;;;2.10;;
6033;SDS011;3045;43.226;27.858;2022-08-01T06:23:23;2.22;;;1.73;;
6033;SDS011;3045;43.226;27.858;2022-08-01T06:25:51;2.53;;;1.60;;
6033;SDS011;3045;43.226;27.858;2022-08-01T06:28:19;1.10;;;1.10;;
6033;SDS011;3045;43.226;27.858;2022-08-01T06:30:46;1.38;;;1.27;;
6033;SDS011;3045;43.226;27.858;2022-08-01T06:33:14;1.52;;;0.95;;
6033;SDS011;3045;43.226;27.858;2022-08-01T06:35:41;1.23;;;1.20;;
6033;SDS011;3045;43.226;27.858;2022-08-01T06:38:08;1.83;;;1.20;;
6033;SDS011;3045;43.226;27.858;2022-08-01T06:40:35;5.63;;;1.52;;
6033;SDS011;3045;43.226;27.858;2022-08-01T06:43:03;5.50;;;1.35;;
6033;SDS011;3045;43.226;27.858;2022-08-01T06:45:33;3.05;;;1.80;;
6033;SDS011;3045;43.226;27.858;2022-08-01T06:48:01;3.47;;;1.45;;
6033;SDS011;3045;43.226;27.858;2022-08-01T06:50:30;1.77;;;1.15;;
6033;SDS011;3045;43.226;27.858;2022-08-01T06:52:57;1.83;;;1.30;;
6033;SDS011;3045;43.226;27.858;2022-08-01T06:55:24;1.83;;;1.10;;
6033;SDS011;3045;43.226;27.858;2022-08-01T06:57:51;1.50;;;1.40;;
6033;SDS011;3045;43.226;27.858;2022-08-01T07:00:21;1.55;;;1.45;;
6033;SDS011;3045;43.226;27.858;2022-08-01T07:02:49;1.27;;;1.27;;
6033;SDS011;3045;43.226;27.858;2022-08-01T07:05:15;1.30;;;1.20;;
6033;SDS011;3045;43.226;27.858;2022-08-01T07:07:44;2.63;;;1.20;;
6033;SDS011;3045;43.226;27.858;2022-08-01T07:10:11;1.80;;;1.70;;
6033;SDS011;3045;43.226;27.858;2022-08-01T07:12:38;2.65;;;1.30;;
6033;SDS011;3045;43.226;27.858;2022-08-01T07:15:06;2.03;;;1.50;;
6033;SDS011;3045;43.226;27.858;2022-08-01T07:17:36;1.23;;;1.23;;
6033;SDS011;3045;43.226;27.858;2022-08-01T07:20:05;1.75;;;1.65;;
6033;SDS011;3045;43.226;27.858;2022-08-01T07:22:33;1.13;;;1.13;;
6033;SDS011;3045;43.226;27.858;2022-08-01T07:25:01;2.53;;;0.93;;
6033;SDS011;3045;43.226;27.858;2022-08-01T07:27:28;4.85;;;1.17;;
6033;SDS011;3045;43.226;27.858;2022-08-01T07:29:55;1.50;;;1.40;;
6033;SDS011;3045;43.226;27.858;2022-08-01T07:32:22;5.28;;;1.20;;
6033;SDS011;3045;43.226;27.858;2022-08-01T07:34:49;1.00;;;0.90;;
6033;SDS011;3045;43.226;27.858;2022-08-01T07:37:16;1.40;;;0.90;;
6033;SDS011;3045;43.226;27.858;2022-08-01T07:39:43;3.65;;;1.23;;
6033;SDS011;3045;43.226;27.858;2022-08-01T07:42:11;1.63;;;1.00;;
6033;SDS011;3045;43.226;27.858;2022-08-01T07:44:38;1.63;;;0.93;;
6033;SDS011;3045;43.226;27.858;2022-08-01T07:47:06;0.85;;;0.85;;
6033;SDS011;3045;43.226;27.858;2022-08-01T07:49:33;1.58;;;0.95;;
6033;SDS011;3045;43.226;27.858;2022-08-01T07:52:00;2.92;;;0.98;;
6033;SDS011;3045;43.226;27.858;2022-08-01T07:54:27;1.35;;;0.80;;
6033;SDS011;3045;43.226;27.858;2022-08-01T07:56:54;2.28;;;1.00;;
6033;SDS011;3045;43.226;27.858;2022-08-01T07:59:22;1.02;;;0.90;;
6033;SDS011;3045;43.226;27.858;2022-08-01T08:01:49;0.80;;;0.80;;
6033;SDS011;3045;43.226;27.858;2022-08-01T08:04:16;1.88;;;0.70;;
6033;SDS011;3045;43.226;27.858;2022-08-01T08:06:44;5.28;;;1.13;;
6033;SDS011;3045;43.226;27.858;2022-08-01T08:09:12;3.22;;;1.23;;
6033;SDS011;3045;43.226;27.858;2022-08-01T08:11:42;3.33;;;1.17;;
6033;SDS011;3045;43.226;27.858;2022-08-01T08:14:09;1.00;;;0.90;;
6033;SDS011;3045;43.226;27.858;2022-08-01T08:16:38;1.10;;;0.75;;
6033;SDS011;3045;43.226;27.858;2022-08-01T08:19:05;1.08;;;0.70;;
6033;SDS011;3045;43.226;27.858;2022-08-01T08:21:32;1.40;;;0.90;;
6033;SDS011;3045;43.226;27.858;2022-08-01T08:23:59;3.88;;;1.05;;
6033;SDS011;3045;43.226;27.858;2022-08-01T08:26:43;5.70;;;1.30;;
6033;SDS011;3045;43.226;27.858;2022-08-01T08:29:10;2.70;;;0.90;;
6033;SDS011;3045;43.226;27.858;2022-08-01T08:31:38;1.10;;;1.00;;
6033;SDS011;3045;43.226;27.858;2022-08-01T08:34:05;6.80;;;0.93;;
6033;SDS011;3045;43.226;27.858;2022-08-01T08:36:32;2.15;;;0.90;;
6033;SDS011;3045;43.226;27.858;2022-08-01T08:38:59;1.17;;;1.08;;
6033;SDS011;3045;43.226;27.858;2022-08-01T08:41:27;1.33;;;0.70;;
6033;SDS011;3045;43.226;27.858;2022-08-01T08:43:56;0.75;;;0.75;;
6033;SDS011;3045;43.226;27.858;2022-08-01T08:46:24;1.95;;;0.73;;
6033;SDS011;3045;43.226;27.858;2022-08-01T08:48:54;2.03;;;1.08;;
6033;SDS011;3045;43.226;27.858;2022-08-01T08:51:22;1.27;;;0.93;;
6033;SDS011;3045;43.226;27.858;2022-08-01T08:53:51;1.38;;;0.82;;
6033;SDS011;3045;43.226;27.858;2022-08-01T08:56:21;3.55;;;1.33;;
6033;SDS011;3045;43.226;27.858;2022-08-01T08:58:51;3.03;;;1.30;;
6033;SDS011;3045;43.226;27.858;2022-08-01T09:01:18;3.83;;;0.90;;
6033;SDS011;3045;43.226;27.858;2022-08-01T09:03:45;0.88;;;0.68;;
6033;SDS011;3045;43.226;27.858;2022-08-01T09:06:13;0.70;;;0.70;;
6033;SDS011;3045;43.226;27.858;2022-08-01T09:08:40;1.17;;;0.65;;
6033;SDS011;3045;43.226;27.858;2022-08-01T09:11:07;0.77;;;0.77;;
6033;SDS011;3045;43.226;27.858;2022-08-01T09:13:34;0.77;;;0.75;;
6033;SDS011;3045;43.226;27.858;2022-08-01T09:16:01;0.60;;;0.60;;
6033;SDS011;3045;43.226;27.858;2022-08-01T09:18:32;0.80;;;0.70;;
6033;SDS011;3045;43.226;27.858;2022-08-01T09:21:10;1.65;;;0.70;;
6033;SDS011;3045;43.226;27.858;2022-08-01T09:23:42;1.80;;;0.80;;
6033;SDS011;3045;43.226;27.858;2022-08-01T09:26:10;0.82;;;0.82;;
6033;SDS011;3045;43.226;27.858;2022-08-01T09:28:38;1.20;;;0.80;;
6033;SDS011;3045;43.226;27.858;2022-08-01T09:31:06;1.58;;;0.55;;
6033;SDS011;3045;43.226;27.858;2022-08-01T09:33:48;1.27;;;0.75;;
6033;SDS011;3045;43.226;27.858;2022-08-01T09:36:42;2.67;;;0.93;;
6033;SDS011;3045;43.226;27.858;2022-08-01T09:39:36;1.80;;;0.90;;
6033;SDS011;3045;43.226;27.858;2022-08-01T09:42:20;0.95;;;0.95;;
6033;SDS011;3045;43.226;27.858;2022-08-01T09:44:51;0.75;;;0.75;;
6033;SDS011;3045;43.226;27.858;2022-08-01T09:47:36;1.65;;;0.52;;
6033;SDS011;3045;43.226;27.858;2022-08-01T09:50:34;0.70;;;0.70;;
6033;SDS011;3045;43.226;27.858;2022-08-01T09:53:19;0.70;;;0.70;;
6033;SDS011;3045;43.226;27.858;2022-08-01T09:55:50;2.08;;;0.90;;
6033;SDS011;3045;43.226;27.858;2022-08-01T09:58:22;1.83;;;0.90;;
6033;SDS011;3045;43.226;27.858;2022-08-01T10:00:57;1.13;;;0.52;;
6033;SDS011;3045;43.226;27.858;2022-08-01T10:03:25;1.65;;;0.60;;
6033;SDS011;3045;43.226;27.858;2022-08-01T10:05:54;1.30;;;0.60;;
6033;SDS011;3045;43.226;27.858;2022-08-01T10:08:22;0.93;;;0.65;;
6033;SDS011;3045;43.226;27.858;2022-08-01T10:13:35;0.50;;;0.50;;
6033;SDS011;3045;43.226;27.858;2022-08-01T10:16:02;0.55;;;0.55;;
6033;SDS011;3045;43.226;27.858;2022-08-01T10:18:32;0.70;;;0.70;;
6033;SDS011;3045;43.226;27.858;2022-08-01T10:21:00;1.52;;;0.60;;
6033;SDS011;3045;43.226;27.858;2022-08-01T10:23:30;0.50;;;0.50;;
6033;SDS011;3045;43.226;27.858;2022-08-01T10:26:04;1.50;;;0.80;;
6033;SDS011;3045;43.226;27.858;2022-08-01T10:28:35;0.50;;;0.50;;
6033;SDS011;3045;43.226;27.858;2022-08-01T10:31:03;1.65;;;0.70;;
6033;SDS011;3045;43.226;27.858;2022-08-01T10:33:30;0.80;;;0.70;;
6033;SDS011;3045;43.226;27.858;2022-08-01T10:35:57;1.15;;;1.05;;
6033;SDS011;3045;43.226;27.858;2022-08-01T10:38:24;2.50;;;1.10;;
6033;SDS011;3045;43.226;27.858;2022-08-01T10:40:53;3.25;;;1.02;;
6033;SDS011;3045;43.226;27.858;2022-08-01T10:43:23;1.13;;;1.00;;
6033;SDS011;3045;43.226;27.858;2022-08-01T10:45:51;0.65;;;0.65;;
6033;SDS011;3045;43.226;27.858;2022-08-01T10:48:20;1.23;;;0.90;;
6033;SDS011;3045;43.226;27.858;2022-08-01T10:50:51;1.05;;;1.05;;
6033;SDS011;3045;43.226;27.858;2022-08-01T10:53:22;2.70;;;0.77;;
6033;SDS011;3045;43.226;27.858;2022-08-01T10:55:52;0.73;;;0.73;;
6033;SDS011;3045;43.226;27.858;2022-08-01T10:58:25;0.80;;;0.80;;
6033;SDS011;3045;43.226;27.858;2022-08-01T11:01:18;2.00;;;0.82;;
6033;SDS011;3045;43.226;27.858;2022-08-01T11:03:56;1.30;;;0.90;;
6033;SDS011;3045;43.226;27.858;2022-08-01T11:06:39;0.80;;;0.80;;
6033;SDS011;3045;43.226;27.858;2022-08-01T11:09:21;1.00;;;0.90;;
6033;SDS011;3045;43.226;27.858;2022-08-01T11:11:57;0.85;;;0.75;;
6033;SDS011;3045;43.226;27.858;2022-08-01T11:14:25;3.03;;;1.00;;
6033;SDS011;3045;43.226;27.858;2022-08-01T11:16:54;0.90;;;0.90;;
6033;SDS011;3045;43.226;27.858;2022-08-01T11:19:21;2.78;;;1.48;;
6033;SDS011;3045;43.226;27.858;2022-08-01T11:27:23;1.85;;;0.90;;
6033;SDS011;3045;43.226;27.858;2022-08-01T11:32:56;2.80;;;1.73;;
6033;SDS011;3045;43.226;27.858;2022-08-01T11:35:23;2.15;;;1.00;;
6033;SDS011;3045;43.226;27.858;2022-08-01T11:37:52;1.33;;;0.82;;
6033;SDS011;3045;43.226;27.858;2022-08-01T11:40:21;2.08;;;1.00;;
6033;SDS011;3045;43.226;27.858;2022-08-01T11:42:49;1.90;;;0.85;;
6033;SDS011;3045;43.226;27.858;2022-08-01T11:45:46;1.15;;;0.90;;
6033;SDS011;3045;43.226;27.858;2022-08-01T11:48:18;1.27;;;1.00;;
6033;SDS011;3045;43.226;27.858;2022-08-01T11:50:46;1.30;;;1.20;;
6033;SDS011;3045;43.226;27.858;2022-08-01T11:53:13;1.80;;;0.90;;
6033;SDS011;3045;43.226;27.858;2022-08-01T11:55:43;1.42;;;0.90;;
6033;SDS011;3045;43.226;27.858;2022-08-01T11:58:14;1.00;;;1.00;;
6033;SDS011;3045;43.226;27.858;2022-08-01T12:00:43;2.17;;;1.25;;
6033;SDS011;3045;43.226;27.858;2022-08-01T12:03:16;0.75;;;0.75;;
6033;SDS011;3045;43.226;27.858;2022-08-01T12:05:49;1.13;;;1.02;;
6033;SDS011;3045;43.226;27.858;2022-08-01T12:08:23;1.80;;;1.02;;
6033;SDS011;3045;43.226;27.858;2022-08-01T12:10:51;1.17;;;1.08;;
6033;SDS011;3045;43.226;27.858;2022-08-01T12:13:19;7.18;;;1.10;;
6033;SDS011;3045;43.226;27.858;2022-08-01T12:15:46;1.10;;;1.00;;
6033;SDS011;3045;43.226;27.858;2022-08-01T12:18:15;1.92;;;1.02;;
6033;SDS011;3045;43.226;27.858;2022-08-01T12:20:44;1.85;;;1.02;;
6033;SDS011;3045;43.226;27.858;2022-08-01T12:23:13;2.35;;;1.02;;
6033;SDS011;3045;43.226;27.858;2022-08-01T12:25:41;0.73;;;0.73;;
6033;SDS011;3045;43.226;27.858;2022-08-01T12:28:11;3.35;;;1.20;;
6033;SDS011;3045;43.226;27.858;2022-08-01T12:30:39;1.05;;;0.80;;
6033;SDS011;3045;43.226;27.858;2022-08-01T12:33:07;0.80;;;0.80;;
6033;SDS011;3045;43.226;27.858;2022-08-01T12:35:35;4.20;;;4.00;;
6033;SDS011;3045;43.226;27.858;2022-08-01T12:38:08;2.30;;;2.28;;
6033;SDS011;3045;43.226;27.858;2022-08-01T12:40:42;1.60;;;1.10;;
6033;SDS011;3045;43.226;27.858;2022-08-01T12:43:15;2.70;;;0.95;;
6033;SDS011;3045;43.226;27.858;2022-08-01T12:45:43;1.52;;;0.90;;
6033;SDS011;3045;43.226;27.858;2022-08-01T12:48:12;2.47;;;1.10;;
6033;SDS011;3045;43.226;27.858;2022-08-01T12:50:41;0.90;;;0.90;;
6033;SDS011;3045;43.226;27.858;2022-08-01T12:53:11;0.85;;;0.85;;
6033;SDS011;3045;43.226;27.858;2022-08-01T12:55:43;0.90;;;0.90;;
6033;SDS011;3045;43.226;27.858;2022-08-01T12:58:11;2.58;;;1.23;;
6033;SDS011;3045;43.226;27.858;2022-08-01T13:00:40;1.70;;;1.00;;
6033;SDS011;3045;43.226;27.858;2022-08-01T13:03:09;1.10;;;1.00;;
6033;SDS011;3045;43.226;27.858;2022-08-01T13:05:40;1.13;;;1.02;;
6033;SDS011;3045;43.226;27.858;2022-08-01T13:08:09;1.38;;;1.00;;
6033;SDS011;3045;43.226;27.858;2022-08-01T13:10:38;1.70;;;0.90;;
6033;SDS011;3045;43.226;27.858;2022-08-01T13:13:06;0.80;;;0.80;;
6033;SDS011;3045;43.226;27.858;2022-08-01T13:15:35;1.65;;;1.02;;
6033;SDS011;3045;43.226;27.858;2022-08-01T13:20:50;1.63;;;1.52;;
6033;SDS011;3045;43.226;27.858;2022-08-01T13:23:34;1.98;;;1.10;;
6033;SDS011;3045;43.226;27.858;2022-08-01T13:26:01;0.82;;;0.82;;
6033;SDS011;3045;43.226;27.858;2022-08-01T13:28:28;1.75;;;1.10;;
6033;SDS011;3045;43.226;27.858;2022-08-01T13:30:57;1.75;;;1.23;;
6033;SDS011;3045;43.226;27.858;2022-08-01T13:33:25;1.00;;;1.00;;
6033;SDS011;3045;43.226;27.858;2022-08-01T13:35:54;1.00;;;1.00;;
6033;SDS011;3045;43.226;27.858;2022-08-01T13:38:23;9.57;;;8.27;;
6033;SDS011;3045;43.226;27.858;2022-08-01T13:41:05;2.67;;;2.47;;
6033;SDS011;3045;43.226;27.858;2022-08-01T13:43:32;1.40;;;1.40;;
6033;SDS011;3045;43.226;27.858;2022-08-01T13:45:59;1.52;;;1.50;;
6033;SDS011;3045;43.226;27.858;2022-08-01T13:48:29;2.15;;;1.40;;
6033;SDS011;3045;43.226;27.858;2022-08-01T13:50:56;1.60;;;1.60;;
6033;SDS011;3045;43.226;27.858;2022-08-01T13:53:23;1.60;;;1.50;;
6033;SDS011;3045;43.226;27.858;2022-08-01T13:55:50;2.40;;;1.63;;
6033;SDS011;3045;43.226;27.858;2022-08-01T13:58:18;2.55;;;1.50;;
6033;SDS011;3045;43.226;27.858;2022-08-01T14:00:45;1.30;;;1.30;;
6033;SDS011;3045;43.226;27.858;2022-08-01T14:03:12;1.70;;;1.63;;
6033;SDS011;3045;43.226;27.858;2022-08-01T14:05:41;1.70;;;1.23;;
6033;SDS011;3045;43.226;27.858;2022-08-01T14:08:08;1.70;;;1.60;;
6033;SDS011;3045;43.226;27.858;2022-08-01T14:10:36;3.42;;;1.70;;
6033;SDS011;3045;43.226;27.858;2022-08-01T14:13:03;1.67;;;1.58;;
6033;SDS011;3045;43.226;27.858;2022-08-01T14:15:34;1.75;;;1.75;;
6033;SDS011;3045;43.226;27.858;2022-08-01T14:18:02;2.78;;;1.75;;
6033;SDS011;3045;43.226;27.858;2022-08-01T14:20:29;2.80;;;1.85;;
6033;SDS011;3045;43.226;27.858;2022-08-01T14:22:56;3.35;;;2.10;;
6033;SDS011;3045;43.226;27.858;2022-08-01T14:25:24;3.03;;;1.80;;
6033;SDS011;3045;43.226;27.858;2022-08-01T14:27:50;1.95;;;1.85;;
6033;SDS011;3045;43.226;27.858;2022-08-01T14:30:17;1.90;;;1.80;;
6033;SDS011;3045;43.226;27.858;2022-08-01T14:32:46;1.92;;;1.80;;
6033;SDS011;3045;43.226;27.858;2022-08-01T14:35:12;2.70;;;2.60;;
6033;SDS011;3045;43.226;27.858;2022-08-01T14:37:39;2.03;;;2.00;;
6033;SDS011;3045;43.226;27.858;2022-08-01T14:40:06;6.65;;;2.35;;
6033;SDS011;3045;43.226;27.858;2022-08-01T14:42:36;2.10;;;1.92;;
6033;SDS011;3045;43.226;27.858;2022-08-01T14:45:03;2.20;;;2.20;;
6033;SDS011;3045;43.226;27.858;2022-08-01T14:47:34;2.25;;;2.22;;
6033;SDS011;3045;43.226;27.858;2022-08-01T14:50:03;2.10;;;2.10;;
6033;SDS011;3045;43.226;27.858;2022-08-01T14:52:31;2.78;;;2.28;;
6033;SDS011;3045;43.226;27.858;2022-08-01T14:54:58;2.90;;;2.78;;
6033;SDS011;3045;43.226;27.858;2022-08-01T14:57:25;2.90;;;2.72;;
6033;SDS011;3045;43.226;27.858;2022-08-01T14:59:52;3.30;;;3.00;;
6033;SDS011;3045;43.226;27.858;2022-08-01T15:02:19;2.92;;;2.83;;
6033;SDS011;3045;43.226;27.858;2022-08-01T15:04:47;2.90;;;2.65;;
6033;SDS011;3045;43.226;27.858;2022-08-01T15:07:16;3.45;;;3.20;;
6033;SDS011;3045;43.226;27.858;2022-08-01T15:09:44;3.40;;;3.30;;
6033;SDS011;3045;43.226;27.858;2022-08-01T15:12:11;3.42;;;3.08;;
6033;SDS011;3045;43.226;27.858;2022-08-01T15:14:38;3.97;;;3.58;;
6033;SDS011;3045;43.226;27.858;2022-08-01T15:17:15;3.28;;;3.05;;
6033;SDS011;3045;43.226;27.858;2022-08-01T15:19:42;3.42;;;3.33;;
6033;SDS011;3045;43.226;27.858;2022-08-01T15:22:09;3.80;;;3.50;;
6033;SDS011;3045;43.226;27.858;2022-08-01T15:24:37;4.13;;;3.83;;
6033;SDS011;3045;43.226;27.858;2022-08-01T15:27:04;3.92;;;3.80;;
6033;SDS011;3045;43.226;27.858;2022-08-01T15:29:31;3.83;;;3.72;;